sensor_id;sensor_type;location;lat;lon;timestamp;P1;durP1;ratioP1;P2;durP2;ratioP2
40695;SDS011;40425;51.102;17.208;2023-02-15T00:03:15;68.07;;;33.43;;
40695;SDS011;40425;51.102;17.208;2023-02-15T00:08:16;66.93;;;31.33;;
40695;SDS011;40425;51.102;17.208;2023-02-15T00:13:17;64.60;;;31.97;;
40695;SDS011;40425;51.102;17.208;2023-02-15T00:18:18;66.20;;;33.60;;
40695;SDS011;40425;51.102;17.208;2023-02-15T00:23:19;66.27;;;34.30;;
40695;SDS011;40425;51.102;17.208;2023-02-15T00:28:20;67.93;;;35.70;;
40695;SDS011;40425;51.102;17.208;2023-02-15T00:33:23;67.50;;;32.73;;
40695;SDS011;40425;51.102;17.208;2023-02-15T00:38:26;81.57;;;41.00;;
40695;SDS011;40425;51.102;17.208;2023-02-15T00:43:28;73.97;;;38.67;;
40695;SDS011;40425;51.102;17.208;2023-02-15T00:48:30;74.87;;;35.43;;
40695;SDS011;40425;51.102;17.208;2023-02-15T00:53:31;78.80;;;37.07;;
40695;SDS011;40425;51.102;17.208;2023-02-15T00:58:32;68.47;;;35.20;;
40695;SDS011;40425;51.102;17.208;2023-02-15T01:03:33;76.30;;;36.53;;
40695;SDS011;40425;51.102;17.208;2023-02-15T01:08:34;75.03;;;35.63;;
40695;SDS011;40425;51.102;17.208;2023-02-15T01:13:35;65.93;;;32.67;;
40695;SDS011;40425;51.102;17.208;2023-02-15T01:18:36;60.70;;;32.27;;
40695;SDS011;40425;51.102;17.208;2023-02-15T01:23:37;69.17;;;33.27;;
40695;SDS011;40425;51.102;17.208;2023-02-15T01:28:38;70.63;;;34.57;;
40695;SDS011;40425;51.102;17.208;2023-02-15T01:33:39;61.07;;;31.57;;
40695;SDS011;40425;51.102;17.208;2023-02-15T01:38:40;72.60;;;31.13;;
40695;SDS011;40425;51.102;17.208;2023-02-15T01:43:42;67.93;;;32.60;;
40695;SDS011;40425;51.102;17.208;2023-02-15T02:03:08;75.25;;;37.22;;
40695;SDS011;40425;51.102;17.208;2023-02-15T02:08:09;70.03;;;35.17;;
40695;SDS011;40425;51.102;17.208;2023-02-15T02:13:10;62.40;;;31.23;;
40695;SDS011;40425;51.102;17.208;2023-02-15T02:28:36;73.77;;;33.37;;
40695;SDS011;40425;51.102;17.208;2023-02-15T02:49:52;70.27;;;33.90;;
40695;SDS011;40425;51.102;17.208;2023-02-15T02:54:58;77.13;;;34.20;;
40695;SDS011;40425;51.102;17.208;2023-02-15T03:00:02;74.73;;;33.40;;
40695;SDS011;40425;51.102;17.208;2023-02-15T03:05:06;65.50;;;32.30;;
40695;SDS011;40425;51.102;17.208;2023-02-15T03:10:11;53.30;;;27.33;;
40695;SDS011;40425;51.102;17.208;2023-02-15T03:15:16;54.93;;;25.00;;
40695;SDS011;40425;51.102;17.208;2023-02-15T03:20:31;56.47;;;26.37;;
40695;SDS011;40425;51.102;17.208;2023-02-15T03:25:38;57.07;;;27.83;;
40695;SDS011;40425;51.102;17.208;2023-02-15T03:30:42;59.43;;;26.97;;
40695;SDS011;40425;51.102;17.208;2023-02-15T03:41:00;49.37;;;24.87;;
40695;SDS011;40425;51.102;17.208;2023-02-15T03:51:29;50.97;;;25.93;;
40695;SDS011;40425;51.102;17.208;2023-02-15T03:56:34;54.27;;;24.33;;
40695;SDS011;40425;51.102;17.208;2023-02-15T04:01:38;41.87;;;22.17;;
40695;SDS011;40425;51.102;17.208;2023-02-15T04:06:57;43.00;;;22.15;;
40695;SDS011;40425;51.102;17.208;2023-02-15T04:11:58;45.23;;;23.07;;
40695;SDS011;40425;51.102;17.208;2023-02-15T04:16:59;49.00;;;22.97;;
40695;SDS011;40425;51.102;17.208;2023-02-15T04:22:00;48.97;;;23.87;;
40695;SDS011;40425;51.102;17.208;2023-02-15T04:27:19;54.77;;;26.80;;
40695;SDS011;40425;51.102;17.208;2023-02-15T04:32:20;50.10;;;25.80;;
40695;SDS011;40425;51.102;17.208;2023-02-15T04:37:21;47.43;;;24.47;;
40695;SDS011;40425;51.102;17.208;2023-02-15T04:42:22;52.70;;;24.13;;
40695;SDS011;40425;51.102;17.208;2023-02-15T04:47:23;45.97;;;23.50;;
40695;SDS011;40425;51.102;17.208;2023-02-15T04:52:24;50.10;;;25.07;;
40695;SDS011;40425;51.102;17.208;2023-02-15T04:57:25;48.80;;;23.93;;
40695;SDS011;40425;51.102;17.208;2023-02-15T05:02:25;46.77;;;24.63;;
40695;SDS011;40425;51.102;17.208;2023-02-15T05:07:26;49.17;;;25.43;;
40695;SDS011;40425;51.102;17.208;2023-02-15T05:12:27;53.87;;;24.23;;
40695;SDS011;40425;51.102;17.208;2023-02-15T05:17:28;47.77;;;24.87;;
40695;SDS011;40425;51.102;17.208;2023-02-15T05:22:29;57.50;;;25.83;;
40695;SDS011;40425;51.102;17.208;2023-02-15T05:27:30;51.33;;;26.10;;
40695;SDS011;40425;51.102;17.208;2023-02-15T05:32:49;49.83;;;24.47;;
40695;SDS011;40425;51.102;17.208;2023-02-15T05:37:50;51.57;;;25.47;;
40695;SDS011;40425;51.102;17.208;2023-02-15T05:42:50;51.27;;;24.43;;
40695;SDS011;40425;51.102;17.208;2023-02-15T05:47:51;60.90;;;28.60;;
40695;SDS011;40425;51.102;17.208;2023-02-15T05:52:52;48.70;;;26.43;;
40695;SDS011;40425;51.102;17.208;2023-02-15T05:57:53;57.70;;;29.70;;
40695;SDS011;40425;51.102;17.208;2023-02-15T06:02:54;56.30;;;27.50;;
40695;SDS011;40425;51.102;17.208;2023-02-15T06:07:55;64.63;;;30.87;;
40695;SDS011;40425;51.102;17.208;2023-02-15T06:12:56;56.37;;;29.83;;
40695;SDS011;40425;51.102;17.208;2023-02-15T06:17:57;62.17;;;31.43;;
40695;SDS011;40425;51.102;17.208;2023-02-15T06:22:58;65.43;;;31.93;;
40695;SDS011;40425;51.102;17.208;2023-02-15T06:27:59;66.50;;;33.47;;
40695;SDS011;40425;51.102;17.208;2023-02-15T06:33:00;63.43;;;33.63;;
40695;SDS011;40425;51.102;17.208;2023-02-15T06:38:01;67.47;;;33.90;;
40695;SDS011;40425;51.102;17.208;2023-02-15T06:43:01;68.37;;;35.30;;
40695;SDS011;40425;51.102;17.208;2023-02-15T06:48:02;70.10;;;34.73;;
40695;SDS011;40425;51.102;17.208;2023-02-15T06:53:04;54.20;;;28.90;;
40695;SDS011;40425;51.102;17.208;2023-02-15T06:58:05;57.77;;;29.57;;
40695;SDS011;40425;51.102;17.208;2023-02-15T07:03:07;54.40;;;27.90;;
40695;SDS011;40425;51.102;17.208;2023-02-15T07:08:08;54.10;;;28.40;;
40695;SDS011;40425;51.102;17.208;2023-02-15T07:13:09;55.80;;;29.30;;
40695;SDS011;40425;51.102;17.208;2023-02-15T07:18:10;65.00;;;34.33;;
40695;SDS011;40425;51.102;17.208;2023-02-15T07:23:10;61.43;;;31.90;;
40695;SDS011;40425;51.102;17.208;2023-02-15T07:28:11;61.50;;;30.97;;
40695;SDS011;40425;51.102;17.208;2023-02-15T07:33:12;65.07;;;30.93;;
40695;SDS011;40425;51.102;17.208;2023-02-15T07:38:29;69.83;;;34.03;;
40695;SDS011;40425;51.102;17.208;2023-02-15T07:43:32;64.70;;;33.67;;
40695;SDS011;40425;51.102;17.208;2023-02-15T07:48:35;68.73;;;33.60;;
40695;SDS011;40425;51.102;17.208;2023-02-15T07:53:37;63.57;;;31.53;;
40695;SDS011;40425;51.102;17.208;2023-02-15T07:58:38;59.77;;;32.37;;
40695;SDS011;40425;51.102;17.208;2023-02-15T08:03:51;69.53;;;35.83;;
40695;SDS011;40425;51.102;17.208;2023-02-15T08:08:55;62.40;;;30.20;;
40695;SDS011;40425;51.102;17.208;2023-02-15T08:14:16;60.97;;;32.70;;
40695;SDS011;40425;51.102;17.208;2023-02-15T08:19:19;58.40;;;29.27;;
40695;SDS011;40425;51.102;17.208;2023-02-15T08:24:23;52.83;;;28.33;;
40695;SDS011;40425;51.102;17.208;2023-02-15T08:29:26;57.00;;;30.07;;
40695;SDS011;40425;51.102;17.208;2023-02-15T08:34:29;51.83;;;27.20;;
40695;SDS011;40425;51.102;17.208;2023-02-15T08:39:32;55.77;;;28.53;;
40695;SDS011;40425;51.102;17.208;2023-02-15T08:44:33;58.17;;;27.17;;
40695;SDS011;40425;51.102;17.208;2023-02-15T08:49:34;53.03;;;26.60;;
40695;SDS011;40425;51.102;17.208;2023-02-15T08:54:34;47.87;;;26.23;;
40695;SDS011;40425;51.102;17.208;2023-02-15T08:59:35;46.50;;;26.00;;
40695;SDS011;40425;51.102;17.208;2023-02-15T09:04:36;45.20;;;25.53;;
40695;SDS011;40425;51.102;17.208;2023-02-15T09:09:37;48.27;;;26.10;;
40695;SDS011;40425;51.102;17.208;2023-02-15T09:14:38;51.13;;;27.03;;
40695;SDS011;40425;51.102;17.208;2023-02-15T09:19:39;48.47;;;25.50;;
40695;SDS011;40425;51.102;17.208;2023-02-15T09:24:40;50.13;;;26.77;;
40695;SDS011;40425;51.102;17.208;2023-02-15T09:29:40;45.90;;;24.43;;
40695;SDS011;40425;51.102;17.208;2023-02-15T09:34:41;45.50;;;25.20;;
40695;SDS011;40425;51.102;17.208;2023-02-15T09:39:50;42.00;;;26.10;;
40695;SDS011;40425;51.102;17.208;2023-02-15T09:44:57;46.03;;;25.37;;
40695;SDS011;40425;51.102;17.208;2023-02-15T09:55:36;45.13;;;24.47;;
40695;SDS011;40425;51.102;17.208;2023-02-15T10:06:03;44.80;;;25.20;;
40695;SDS011;40425;51.102;17.208;2023-02-15T10:11:35;44.57;;;25.33;;
40695;SDS011;40425;51.102;17.208;2023-02-15T10:28:04;40.90;;;25.47;;
40695;SDS011;40425;51.102;17.208;2023-02-15T10:33:53;43.13;;;25.92;;
40695;SDS011;40425;51.102;17.208;2023-02-15T10:38:48;42.93;;;24.70;;
40695;SDS011;40425;51.102;17.208;2023-02-15T11:00:05;46.10;;;26.33;;
40695;SDS011;40425;51.102;17.208;2023-02-15T11:05:23;49.17;;;28.35;;
40695;SDS011;40425;51.102;17.208;2023-02-15T11:16:01;49.80;;;28.43;;
40695;SDS011;40425;51.102;17.208;2023-02-15T11:21:30;50.20;;;30.87;;
40695;SDS011;40425;51.102;17.208;2023-02-15T11:31:43;53.30;;;28.53;;
40695;SDS011;40425;51.102;17.208;2023-02-15T11:36:47;50.83;;;27.53;;
40695;SDS011;40425;51.102;17.208;2023-02-15T11:41:52;51.00;;;27.33;;
40695;SDS011;40425;51.102;17.208;2023-02-15T11:46:57;53.63;;;31.20;;
40695;SDS011;40425;51.102;17.208;2023-02-15T11:51:58;54.03;;;31.93;;
40695;SDS011;40425;51.102;17.208;2023-02-15T11:57:50;51.83;;;30.37;;
40695;SDS011;40425;51.102;17.208;2023-02-15T12:02:35;70.38;;;41.13;;
40695;SDS011;40425;51.102;17.208;2023-02-15T12:18:24;64.20;;;33.47;;
40695;SDS011;40425;51.102;17.208;2023-02-15T12:23:34;54.97;;;31.73;;
40695;SDS011;40425;51.102;17.208;2023-02-15T12:28:54;53.03;;;31.83;;
40695;SDS011;40425;51.102;17.208;2023-02-15T12:34:00;51.37;;;28.90;;
40695;SDS011;40425;51.102;17.208;2023-02-15T12:44:16;50.87;;;28.60;;
40695;SDS011;40425;51.102;17.208;2023-02-15T12:49:24;50.73;;;29.03;;
40695;SDS011;40425;51.102;17.208;2023-02-15T12:54:39;52.60;;;29.80;;
40695;SDS011;40425;51.102;17.208;2023-02-15T12:59:52;46.37;;;28.03;;
40695;SDS011;40425;51.102;17.208;2023-02-15T13:04:56;45.87;;;27.40;;
40695;SDS011;40425;51.102;17.208;2023-02-15T13:10:04;39.23;;;24.87;;
40695;SDS011;40425;51.102;17.208;2023-02-15T13:15:25;47.77;;;28.60;;
40695;SDS011;40425;51.102;17.208;2023-02-15T13:20:33;40.70;;;24.10;;
40695;SDS011;40425;51.102;17.208;2023-02-15T13:25:45;40.80;;;24.73;;
40695;SDS011;40425;51.102;17.208;2023-02-15T13:30:50;51.40;;;29.10;;
40695;SDS011;40425;51.102;17.208;2023-02-15T14:23:57;44.40;;;24.00;;
40695;SDS011;40425;51.102;17.208;2023-02-15T14:34:43;45.37;;;25.47;;
40695;SDS011;40425;51.102;17.208;2023-02-15T14:39:55;37.27;;;23.37;;
40695;SDS011;40425;51.102;17.208;2023-02-15T14:45:28;42.93;;;22.53;;
40695;SDS011;40425;51.102;17.208;2023-02-15T14:50:48;44.70;;;25.57;;
40695;SDS011;40425;51.102;17.208;2023-02-15T15:01:32;37.80;;;21.93;;
40695;SDS011;40425;51.102;17.208;2023-02-15T15:06:38;42.03;;;23.80;;
40695;SDS011;40425;51.102;17.208;2023-02-15T15:11:42;39.83;;;24.30;;
40695;SDS011;40425;51.102;17.208;2023-02-15T15:16:46;43.10;;;25.27;;
40695;SDS011;40425;51.102;17.208;2023-02-15T15:26:50;43.83;;;26.00;;
40695;SDS011;40425;51.102;17.208;2023-02-15T15:32:31;50.97;;;28.27;;
40695;SDS011;40425;51.102;17.208;2023-02-15T15:43:23;48.20;;;27.23;;
40695;SDS011;40425;51.102;17.208;2023-02-15T15:48:36;60.17;;;32.37;;
40695;SDS011;40425;51.102;17.208;2023-02-15T15:53:42;82.47;;;45.87;;
40695;SDS011;40425;51.102;17.208;2023-02-15T15:58:51;53.37;;;29.87;;
40695;SDS011;40425;51.102;17.208;2023-02-15T16:04:30;53.20;;;27.97;;
40695;SDS011;40425;51.102;17.208;2023-02-15T16:09:35;55.23;;;27.50;;
40695;SDS011;40425;51.102;17.208;2023-02-15T16:14:37;52.47;;;27.03;;
40695;SDS011;40425;51.102;17.208;2023-02-15T16:19:40;51.30;;;26.43;;
40695;SDS011;40425;51.102;17.208;2023-02-15T16:24:57;55.63;;;27.80;;
40695;SDS011;40425;51.102;17.208;2023-02-15T16:35:23;51.53;;;28.27;;
40695;SDS011;40425;51.102;17.208;2023-02-15T16:45:27;61.90;;;32.23;;
40695;SDS011;40425;51.102;17.208;2023-02-15T16:50:33;70.63;;;34.97;;
40695;SDS011;40425;51.102;17.208;2023-02-15T16:55:39;85.90;;;43.93;;
40695;SDS011;40425;51.102;17.208;2023-02-15T17:00:42;112.43;;;50.80;;
40695;SDS011;40425;51.102;17.208;2023-02-15T17:05:47;111.53;;;50.83;;
40695;SDS011;40425;51.102;17.208;2023-02-15T17:21:24;84.23;;;44.03;;
40695;SDS011;40425;51.102;17.208;2023-02-15T17:26:31;80.57;;;41.07;;
40695;SDS011;40425;51.102;17.208;2023-02-15T17:31:35;78.23;;;40.60;;
40695;SDS011;40425;51.102;17.208;2023-02-15T17:36:36;83.13;;;40.17;;
40695;SDS011;40425;51.102;17.208;2023-02-15T17:41:58;101.57;;;47.50;;
40695;SDS011;40425;51.102;17.208;2023-02-15T17:46:59;75.77;;;40.30;;
40695;SDS011;40425;51.102;17.208;2023-02-15T17:52:00;101.93;;;52.53;;
40695;SDS011;40425;51.102;17.208;2023-02-15T17:57:01;122.23;;;58.53;;
40695;SDS011;40425;51.102;17.208;2023-02-15T18:02:07;97.13;;;48.17;;
40695;SDS011;40425;51.102;17.208;2023-02-15T18:07:29;103.27;;;49.10;;
40695;SDS011;40425;51.102;17.208;2023-02-15T18:12:48;90.67;;;43.13;;
40695;SDS011;40425;51.102;17.208;2023-02-15T18:17:49;100.13;;;48.17;;
40695;SDS011;40425;51.102;17.208;2023-02-15T18:22:50;118.27;;;55.83;;
40695;SDS011;40425;51.102;17.208;2023-02-15T18:27:51;123.57;;;63.57;;
40695;SDS011;40425;51.102;17.208;2023-02-15T18:32:53;122.50;;;60.67;;
40695;SDS011;40425;51.102;17.208;2023-02-15T18:37:56;128.87;;;64.60;;
40695;SDS011;40425;51.102;17.208;2023-02-15T18:42:59;136.27;;;64.53;;
40695;SDS011;40425;51.102;17.208;2023-02-15T18:48:00;134.07;;;67.80;;
40695;SDS011;40425;51.102;17.208;2023-02-15T18:53:01;127.43;;;61.17;;
40695;SDS011;40425;51.102;17.208;2023-02-15T18:58:04;113.40;;;55.70;;
40695;SDS011;40425;51.102;17.208;2023-02-15T19:03:06;114.63;;;56.53;;
40695;SDS011;40425;51.102;17.208;2023-02-15T19:08:11;115.17;;;56.93;;
40695;SDS011;40425;51.102;17.208;2023-02-15T19:23:22;107.45;;;52.13;;
40695;SDS011;40425;51.102;17.208;2023-02-15T19:28:27;103.07;;;49.13;;
40695;SDS011;40425;51.102;17.208;2023-02-15T19:33:31;95.93;;;48.00;;
40695;SDS011;40425;51.102;17.208;2023-02-15T19:38:33;95.70;;;45.10;;
40695;SDS011;40425;51.102;17.208;2023-02-15T19:43:35;99.53;;;49.67;;
40695;SDS011;40425;51.102;17.208;2023-02-15T19:48:37;110.23;;;50.40;;
40695;SDS011;40425;51.102;17.208;2023-02-15T19:53:38;107.03;;;50.40;;
40695;SDS011;40425;51.102;17.208;2023-02-15T19:58:39;110.73;;;50.47;;
40695;SDS011;40425;51.102;17.208;2023-02-15T20:03:40;124.63;;;56.53;;
40695;SDS011;40425;51.102;17.208;2023-02-15T20:08:41;119.77;;;57.90;;
40695;SDS011;40425;51.102;17.208;2023-02-15T20:13:43;126.20;;;57.73;;
40695;SDS011;40425;51.102;17.208;2023-02-15T20:18:44;121.77;;;54.83;;
40695;SDS011;40425;51.102;17.208;2023-02-15T20:23:45;114.40;;;53.87;;
40695;SDS011;40425;51.102;17.208;2023-02-15T20:28:46;101.20;;;47.20;;
40695;SDS011;40425;51.102;17.208;2023-02-15T20:33:47;110.83;;;49.87;;
40695;SDS011;40425;51.102;17.208;2023-02-15T20:38:48;111.00;;;51.23;;
40695;SDS011;40425;51.102;17.208;2023-02-15T20:43:50;119.37;;;52.03;;
40695;SDS011;40425;51.102;17.208;2023-02-15T20:48:51;129.13;;;60.20;;
40695;SDS011;40425;51.102;17.208;2023-02-15T20:53:51;126.80;;;58.60;;
40695;SDS011;40425;51.102;17.208;2023-02-15T20:58:52;118.13;;;56.53;;
40695;SDS011;40425;51.102;17.208;2023-02-15T21:03:53;112.60;;;54.83;;
40695;SDS011;40425;51.102;17.208;2023-02-15T21:08:54;117.53;;;58.07;;
40695;SDS011;40425;51.102;17.208;2023-02-15T21:13:55;108.90;;;52.23;;
40695;SDS011;40425;51.102;17.208;2023-02-15T21:18:56;128.53;;;55.10;;
40695;SDS011;40425;51.102;17.208;2023-02-15T21:23:57;111.10;;;53.13;;
40695;SDS011;40425;51.102;17.208;2023-02-15T21:28:58;102.50;;;50.37;;
40695;SDS011;40425;51.102;17.208;2023-02-15T21:33:59;108.73;;;52.20;;
40695;SDS011;40425;51.102;17.208;2023-02-15T21:39:00;120.57;;;54.63;;
40695;SDS011;40425;51.102;17.208;2023-02-15T21:44:01;115.83;;;54.20;;
40695;SDS011;40425;51.102;17.208;2023-02-15T21:49:30;101.33;;;49.33;;
40695;SDS011;40425;51.102;17.208;2023-02-15T21:54:30;94.93;;;45.80;;
40695;SDS011;40425;51.102;17.208;2023-02-15T21:59:31;105.77;;;47.97;;
40695;SDS011;40425;51.102;17.208;2023-02-15T22:04:33;101.20;;;46.83;;
40695;SDS011;40425;51.102;17.208;2023-02-15T22:09:33;110.60;;;50.53;;
40695;SDS011;40425;51.102;17.208;2023-02-15T22:14:35;128.83;;;56.23;;
40695;SDS011;40425;51.102;17.208;2023-02-15T22:19:38;129.30;;;56.70;;
40695;SDS011;40425;51.102;17.208;2023-02-15T22:24:39;117.53;;;54.10;;
40695;SDS011;40425;51.102;17.208;2023-02-15T22:29:41;319.80;;;152.87;;
40695;SDS011;40425;51.102;17.208;2023-02-15T22:34:42;294.13;;;135.90;;
40695;SDS011;40425;51.102;17.208;2023-02-15T22:39:43;167.67;;;76.70;;
40695;SDS011;40425;51.102;17.208;2023-02-15T22:44:44;124.43;;;57.53;;
40695;SDS011;40425;51.102;17.208;2023-02-15T22:49:45;115.50;;;54.93;;
40695;SDS011;40425;51.102;17.208;2023-02-15T22:54:46;118.77;;;54.13;;
40695;SDS011;40425;51.102;17.208;2023-02-15T22:59:47;121.47;;;54.60;;
40695;SDS011;40425;51.102;17.208;2023-02-15T23:04:48;116.97;;;51.13;;
40695;SDS011;40425;51.102;17.208;2023-02-15T23:09:49;117.53;;;53.60;;
40695;SDS011;40425;51.102;17.208;2023-02-15T23:14:50;111.57;;;49.10;;
40695;SDS011;40425;51.102;17.208;2023-02-15T23:19:52;105.27;;;47.63;;
40695;SDS011;40425;51.102;17.208;2023-02-15T23:24:53;102.83;;;47.70;;
40695;SDS011;40425;51.102;17.208;2023-02-15T23:29:54;120.67;;;54.87;;
40695;SDS011;40425;51.102;17.208;2023-02-15T23:34:54;112.37;;;51.33;;
40695;SDS011;40425;51.102;17.208;2023-02-15T23:39:55;111.00;;;49.77;;
40695;SDS011;40425;51.102;17.208;2023-02-15T23:45:20;134.47;;;60.57;;
40695;SDS011;40425;51.102;17.208;2023-02-15T23:55:33;147.23;;;64.70;;
